Time;durP1;ratioP1;P1;durP2;ratioP2;P2;SDS_P1;SDS_P2;PMS_P1;PMS_P2;Temp;Humidity;BMP_temperature;BMP_pressure;BME280_temperature;BME280_humidity;BME280_pressure;Samples;Min_cycle;Max_cycle;Signal;HPM_P1;HPM_P2
2023/03/24 00:01:46;;;;;;;0.40;0.40;;;11.20;99.90;;;;;;6126400;23;20761;-69
2023/03/24 00:04:13;;;;;;;0.83;0.83;;;11.20;99.90;;;;;;6126441;23;20387;-69
2023/03/24 00:06:39;;;;;;;0.90;0.90;;;11.20;99.90;;;;;;6126491;23;20145;-68
2023/03/24 00:09:05;;;;;;;0.80;0.47;;;11.10;99.90;;;;;;6126423;23;20388;-69
2023/03/24 00:11:34;;;;;;;0.40;0.40;;;11.10;99.90;;;;;;6126643;23;20352;-69
2023/03/24 00:14:01;;;;;;;0.90;0.63;;;11.10;99.90;;;;;;6126248;23;20423;-69
2023/03/24 00:16:28;;;;;;;0.50;0.50;;;11.10;99.90;;;;;;6100508;23;20379;-69
2023/03/24 00:18:53;;;;;;;1.53;1.53;;;11.20;99.90;;;;;;6126261;23;20391;-68
2023/03/24 00:21:20;;;;;;;0.30;0.30;;;11.30;99.90;;;;;;6126245;23;20372;-69
2023/03/24 00:23:48;;;;;;;1.25;0.75;;;11.40;99.90;;;;;;6126079;23;20148;-69
2023/03/24 00:26:15;;;;;;;0.40;0.40;;;11.40;99.90;;;;;;6126602;23;20215;-69
2023/03/24 00:28:43;;;;;;;0.57;0.57;;;11.40;99.90;;;;;;6126297;23;20172;-68
2023/03/24 00:31:09;;;;;;;0.65;0.65;;;11.40;99.90;;;;;;6126323;23;20148;-68
2023/03/24 00:33:36;;;;;;;0.60;0.60;;;11.40;99.90;;;;;;6126046;23;20178;-69
2023/03/24 00:36:07;;;;;;;0.70;0.70;;;11.30;99.90;;;;;;6126333;23;20455;-68
2023/03/24 00:38:33;;;;;;;0.40;0.40;;;11.30;99.90;;;;;;6126311;23;20475;-69
2023/03/24 00:41:00;;;;;;;0.82;0.82;;;11.30;99.90;;;;;;6126459;23;20376;-69
2023/03/24 00:43:27;;;;;;;0.40;0.40;;;11.20;99.90;;;;;;6126191;23;20152;-69
2023/03/24 00:46:00;;;;;;;0.40;0.40;;;11.20;99.90;;;;;;6126319;23;20152;-68
2023/03/24 00:48:28;;;;;;;0.30;0.30;;;11.20;99.90;;;;;;6126208;23;20247;-69
2023/03/24 00:50:54;;;;;;;0.40;0.40;;;11.10;99.90;;;;;;6126276;23;20156;-68
2023/03/24 00:53:24;;;;;;;0.67;0.67;;;11.00;99.90;;;;;;6126127;23;20416;-68
2023/03/24 00:55:50;;;;;;;2.03;1.83;;;11.00;99.90;;;;;;6126306;23;20804;-68
2023/03/24 00:58:18;;;;;;;0.50;0.50;;;11.10;99.90;;;;;;6126169;23;20428;-67
2023/03/24 01:00:52;;;;;;;0.97;0.70;;;11.20;99.90;;;;;;6126224;23;20148;-67
2023/03/24 01:03:21;;;;;;;1.13;0.80;;;11.10;99.90;;;;;;6126027;23;20399;-69
2023/03/24 01:05:47;;;;;;;1.08;0.98;;;11.10;99.90;;;;;;6126366;23;20431;-69
2023/03/24 01:08:19;;;;;;;0.40;0.40;;;11.30;99.90;;;;;;6126118;23;20251;-68
2023/03/24 01:10:49;;;;;;;1.27;0.73;;;11.40;99.90;;;;;;6126351;23;20344;-68
2023/03/24 01:13:16;;;;;;;0.55;0.50;;;11.40;99.90;;;;;;6126061;23;20408;-69
2023/03/24 01:15:44;;;;;;;0.65;0.60;;;11.40;99.90;;;;;;6126140;23;20153;-68
2023/03/24 01:18:11;;;;;;;0.95;0.90;;;11.40;99.90;;;;;;6126097;23;20673;-68
2023/03/24 01:20:40;;;;;;;1.10;0.95;;;11.30;99.90;;;;;;6126103;23;20611;-68
2023/03/24 01:23:06;;;;;;;0.50;0.50;;;11.30;99.90;;;;;;6125941;23;20164;-67
2023/03/24 01:25:37;;;;;;;0.75;0.70;;;11.20;99.90;;;;;;6126041;23;20180;-69
2023/03/24 01:28:03;;;;;;;0.60;0.57;;;11.20;99.90;;;;;;6126549;23;20168;-69
2023/03/24 01:30:30;;;;;;;0.50;0.50;;;11.20;99.90;;;;;;6126118;23;20203;-68
2023/03/24 01:32:56;;;;;;;0.52;0.52;;;11.20;99.90;;;;;;6125806;23;20172;-68
2023/03/24 01:35:24;;;;;;;1.60;0.60;;;11.20;99.90;;;;;;6126094;23;20155;-69
2023/03/24 01:37:51;;;;;;;0.40;0.40;;;11.20;99.90;;;;;;6127710;23;20168;-67
2023/03/24 01:40:21;;;;;;;0.70;0.70;;;11.20;99.90;;;;;;6127783;23;20372;-69
2023/03/24 01:42:47;;;;;;;0.30;0.30;;;11.10;99.90;;;;;;6127833;23;20199;-69
2023/03/24 01:45:40;;;;;;;0.37;0.37;;;11.10;99.90;;;;;;6128029;23;20376;-68
2023/03/24 01:48:10;;;;;;;0.40;0.40;;;11.10;99.90;;;;;;6127642;23;20388;-67
2023/03/24 01:50:37;;;;;;;1.02;1.02;;;11.20;99.90;;;;;;6128028;23;20348;-69
2023/03/24 01:53:04;;;;;;;0.93;0.93;;;11.20;99.90;;;;;;6127414;23;20259;-68
2023/03/24 01:55:31;;;;;;;0.80;0.80;;;11.20;99.90;;;;;;6127708;23;20582;-67
2023/03/24 01:57:59;;;;;;;0.40;0.40;;;11.20;99.90;;;;;;6127772;23;20878;-68
2023/03/24 02:00:25;;;;;;;0.50;0.50;;;11.20;99.90;;;;;;6127646;23;20168;-67
2023/03/24 02:02:57;;;;;;;1.33;1.30;;;11.30;99.90;;;;;;6127245;23;20431;-67
2023/03/24 02:05:27;;;;;;;0.90;0.90;;;11.30;99.90;;;;;;6127922;23;20156;-69
2023/03/24 02:08:17;;;;;;;2.30;0.50;;;11.30;99.90;;;;;;6127718;23;20395;-69
2023/03/24 02:10:43;;;;;;;0.90;0.30;;;11.30;99.90;;;;;;6127580;23;20772;-68
2023/03/24 02:13:10;;;;;;;0.73;0.70;;;11.30;99.90;;;;;;6127274;23;20215;-69
2023/03/24 02:16:06;;;;;;;0.80;0.80;;;11.30;99.90;;;;;;6127447;23;20208;-68
2023/03/24 02:19:13;;;;;;;1.07;1.07;;;11.30;99.90;;;;;;6120213;23;20415;-68
2023/03/24 02:22:15;;;;;;;0.47;0.47;;;11.30;99.90;;;;;;6127153;23;20890;-69
2023/03/24 02:25:08;;;;;;;0.93;0.93;;;11.30;99.90;;;;;;6127615;23;20726;-68
2023/03/24 02:27:46;;;;;;;0.57;0.57;;;11.30;99.90;;;;;;6127326;23;20395;-69
2023/03/24 02:30:28;;;;;;;0.60;0.60;;;11.20;99.90;;;;;;6127334;23;20355;-68
2023/03/24 02:33:17;;;;;;;0.30;0.30;;;11.10;99.90;;;;;;6126950;23;20441;-69
2023/03/24 02:36:01;;;;;;;0.60;0.60;;;11.10;99.90;;;;;;6059749;23;20415;-69
2023/03/24 02:38:48;;;;;;;0.50;0.50;;;11.20;99.90;;;;;;6127590;23;20164;-68
2023/03/24 02:41:33;;;;;;;0.40;0.40;;;11.20;99.90;;;;;;6127210;23;20418;-69
2023/03/24 02:43:58;;;;;;;0.80;0.80;;;11.20;99.90;;;;;;6126977;23;20356;-69
2023/03/24 02:46:37;;;;;;;0.60;0.60;;;11.20;99.90;;;;;;6127195;23;20191;-68
2023/03/24 02:49:31;;;;;;;0.40;0.40;;;11.20;99.90;;;;;;6127117;23;20172;-69
2023/03/24 02:52:09;;;;;;;0.63;0.63;;;11.20;99.90;;;;;;6126919;23;20216;-69
2023/03/24 02:54:54;;;;;;;0.50;0.50;;;11.10;99.90;;;;;;6127008;23;20152;-69
2023/03/24 02:57:33;;;;;;;0.40;0.40;;;11.20;99.90;;;;;;6127077;23;20160;-68
2023/03/24 03:00:21;;;;;;;0.40;0.40;;;11.30;99.90;;;;;;6127511;23;20255;-68
2023/03/24 03:02:54;;;;;;;0.70;0.70;;;11.40;99.90;;;;;;6126859;23;20159;-68
2023/03/24 03:05:30;;;;;;;0.50;0.50;;;11.40;99.90;;;;;;6127108;23;20140;-69
2023/03/24 03:07:59;;;;;;;1.73;1.63;;;11.30;99.90;;;;;;6127490;23;20511;-69
2023/03/24 03:10:31;;;;;;;0.60;0.60;;;11.40;99.90;;;;;;6126993;23;20149;-68
2023/03/24 03:13:00;;;;;;;0.60;0.60;;;11.40;99.90;;;;;;6100753;23;20495;-68
2023/03/24 03:15:30;;;;;;;0.40;0.40;;;11.30;99.90;;;;;;6126982;23;20375;-68
2023/03/24 03:18:17;;;;;;;0.40;0.40;;;11.20;99.90;;;;;;6100816;23;20172;-68
2023/03/24 03:20:52;;;;;;;0.83;0.77;;;11.30;99.90;;;;;;6126780;23;20357;-67
2023/03/24 03:23:33;;;;;;;1.10;1.00;;;11.30;99.90;;;;;;6126655;23;20423;-68
2023/03/24 03:26:06;;;;;;;0.60;0.60;;;11.40;99.90;;;;;;6126927;23;20371;-68
2023/03/24 03:28:40;;;;;;;0.77;0.77;;;11.50;99.90;;;;;;6126736;23;20407;-68
2023/03/24 03:31:13;;;;;;;0.60;0.43;;;11.50;99.90;;;;;;6127266;23;20431;-69
2023/03/24 03:33:48;;;;;;;0.50;0.40;;;11.40;99.90;;;;;;6126543;23;20423;-69
2023/03/24 03:36:18;;;;;;;0.50;0.50;;;11.40;99.90;;;;;;6100811;23;20567;-68
2023/03/24 03:38:54;;;;;;;0.63;0.50;;;11.40;99.90;;;;;;6126603;23;20388;-68
2023/03/24 03:41:20;;;;;;;0.50;0.50;;;11.40;99.90;;;;;;6127016;23;20432;-67
2023/03/24 03:43:48;;;;;;;0.43;0.43;;;11.50;99.90;;;;;;6126521;23;20372;-69
2023/03/24 03:46:15;;;;;;;0.83;0.83;;;11.50;99.90;;;;;;6126644;23;20380;-69
2023/03/24 03:48:43;;;;;;;1.60;0.80;;;11.40;99.90;;;;;;6126603;23;20471;-69
2023/03/24 03:51:10;;;;;;;0.50;0.50;;;11.40;99.90;;;;;;6126655;23;20402;-68
2023/03/24 03:53:57;;;;;;;0.40;0.40;;;11.40;99.90;;;;;;6126397;23;20419;-68
2023/03/24 03:56:26;;;;;;;0.95;0.95;;;11.40;99.90;;;;;;6126672;23;20133;-67
2023/03/24 03:58:52;;;;;;;0.30;0.30;;;11.50;99.90;;;;;;6126332;23;20670;-68
2023/03/24 04:01:22;;;;;;;0.30;0.30;;;11.40;99.90;;;;;;6126891;23;20841;-68
2023/03/24 04:04:07;;;;;;;0.37;0.37;;;11.40;99.90;;;;;;6126339;23;20380;-69
2023/03/24 04:06:43;;;;;;;0.30;0.30;;;11.40;99.90;;;;;;6127001;23;20352;-68
2023/03/24 04:09:23;;;;;;;0.30;0.30;;;11.40;99.90;;;;;;6126348;23;20399;-68
2023/03/24 04:12:26;;;;;;;0.50;0.50;;;11.40;99.90;;;;;;6126295;23;20353;-67
2023/03/24 04:15:08;;;;;;;0.40;0.40;;;11.40;99.90;;;;;;6126456;23;20379;-69
2023/03/24 04:17:55;;;;;;;0.70;0.70;;;11.40;99.90;;;;;;6126535;23;20175;-69
2023/03/24 04:20:45;;;;;;;0.40;0.40;;;11.40;99.90;;;;;;6126386;23;20368;-69
2023/03/24 04:23:21;;;;;;;1.33;1.23;;;11.40;99.90;;;;;;6126073;23;20392;-68
2023/03/24 04:26:05;;;;;;;1.47;1.47;;;11.40;99.90;;;;;;6126640;23;20351;-68
2023/03/24 04:29:03;;;;;;;1.93;0.43;;;11.40;99.90;;;;;;6126380;23;20427;-69
2023/03/24 04:31:36;;;;;;;0.90;0.90;;;11.40;99.90;;;;;;6125630;23;20388;-68
2023/03/24 04:34:16;;;;;;;0.70;0.67;;;11.50;99.90;;;;;;6126176;23;20420;-68
2023/03/24 04:36:49;;;;;;;0.60;0.60;;;11.50;99.90;;;;;;6100550;23;20384;-69
2023/03/24 04:39:24;;;;;;;0.73;0.50;;;11.50;99.90;;;;;;6126332;23;20539;-68
2023/03/24 04:41:51;;;;;;;0.50;0.50;;;11.50;99.90;;;;;;6126713;23;20399;-69
2023/03/24 04:44:20;;;;;;;0.40;0.40;;;11.60;99.90;;;;;;6100429;23;20384;-69
2023/03/24 04:46:50;;;;;;;0.40;0.40;;;11.60;99.90;;;;;;6126437;23;20399;-69
2023/03/24 04:49:15;;;;;;;0.60;0.60;;;11.70;99.90;;;;;;6126270;23;20396;-69
2023/03/24 04:51:43;;;;;;;1.33;0.67;;;11.70;99.90;;;;;;6126099;23;20380;-68
2023/03/24 04:54:08;;;;;;;1.90;0.90;;;11.70;99.90;;;;;;6126234;23;20172;-68
2023/03/24 04:56:47;;;;;;;0.67;0.67;;;11.80;99.90;;;;;;6126262;23;20372;-67
2023/03/24 04:59:14;;;;;;;2.27;1.77;;;11.70;99.90;;;;;;6126076;23;20191;-68
2023/03/24 05:01:48;;;;;;;4.13;0.70;;;11.80;99.90;;;;;;6126442;23;20383;-69
2023/03/24 05:04:19;;;;;;;0.70;0.70;;;11.80;99.90;;;;;;6126325;23;20810;-69
2023/03/24 05:06:45;;;;;;;0.40;0.40;;;11.80;99.90;;;;;;6126201;23;20368;-69
2023/03/24 05:09:13;;;;;;;1.90;0.93;;;11.70;99.90;;;;;;6126157;23;20588;-69
2023/03/24 05:11:38;;;;;;;0.40;0.40;;;11.70;99.90;;;;;;6126917;23;20501;-68
2023/03/24 05:14:04;;;;;;;0.40;0.40;;;11.70;99.90;;;;;;6127991;23;20474;-68
2023/03/24 05:16:30;;;;;;;1.03;1.03;;;11.80;99.90;;;;;;6128083;23;20176;-69
2023/03/24 05:18:55;;;;;;;0.70;0.70;;;11.80;99.90;;;;;;6127837;23;20505;-69
2023/03/24 05:21:21;;;;;;;0.50;0.50;;;11.80;99.90;;;;;;6127831;23;20159;-68
2023/03/24 05:23:47;;;;;;;0.30;0.30;;;11.80;99.90;;;;;;6127906;23;20147;-68
2023/03/24 05:26:12;;;;;;;1.23;1.13;;;11.80;99.90;;;;;;6127979;23;20184;-69
2023/03/24 05:28:38;;;;;;;0.37;0.37;;;11.90;99.90;;;;;;6127889;23;20176;-69
2023/03/24 05:31:04;;;;;;;4.20;1.03;;;11.80;99.90;;;;;;6127960;23;20245;-69
2023/03/24 05:33:30;;;;;;;1.13;1.10;;;11.80;99.90;;;;;;6127682;23;20619;-69
2023/03/24 05:35:55;;;;;;;0.70;0.70;;;11.80;99.90;;;;;;6128138;23;20145;-69
2023/03/24 05:38:21;;;;;;;1.80;1.70;;;11.70;99.90;;;;;;6127805;23;20395;-68
2023/03/24 05:40:46;;;;;;;0.87;0.87;;;11.70;99.90;;;;;;6128077;23;20148;-68
2023/03/24 05:43:12;;;;;;;0.53;0.53;;;11.80;99.90;;;;;;6127641;23;20554;-68
2023/03/24 05:45:38;;;;;;;1.10;1.00;;;11.70;99.90;;;;;;6128167;23;20251;-69
2023/03/24 05:48:04;;;;;;;0.60;0.60;;;11.80;99.90;;;;;;6127671;23;20168;-69
2023/03/24 05:50:30;;;;;;;0.70;0.70;;;11.80;99.90;;;;;;6127726;23;20379;-69
2023/03/24 05:52:56;;;;;;;0.60;0.53;;;11.80;99.90;;;;;;6127425;23;20415;-68
2023/03/24 05:55:22;;;;;;;0.50;0.50;;;11.80;99.90;;;;;;6128154;23;20381;-68
2023/03/24 05:57:47;;;;;;;1.43;0.80;;;11.80;99.90;;;;;;6127706;23;20638;-69
2023/03/24 06:00:16;;;;;;;1.07;1.07;;;11.80;99.90;;;;;;6128033;23;20145;-68
2023/03/24 06:02:45;;;;;;;0.63;0.60;;;11.80;99.90;;;;;;6127375;23;20534;-69
2023/03/24 06:05:12;;;;;;;0.70;0.70;;;11.80;99.90;;;;;;6128062;23;20383;-68
2023/03/24 06:07:41;;;;;;;1.10;1.10;;;11.80;99.90;;;;;;6127480;23;20435;-68
2023/03/24 06:10:10;;;;;;;3.80;2.00;;;11.80;99.90;;;;;;6101583;23;20386;-69
2023/03/24 06:12:36;;;;;;;1.83;1.57;;;11.80;99.90;;;;;;6127271;23;20499;-69
2023/03/24 06:15:03;;;;;;;3.03;1.17;;;11.80;99.90;;;;;;6127497;23;20372;-69
2023/03/24 06:17:30;;;;;;;1.20;1.20;;;11.70;99.90;;;;;;6127379;23;20388;-69
2023/03/24 06:20:01;;;;;;;0.40;0.40;;;11.70;99.90;;;;;;6127431;23;20508;-68
2023/03/24 06:22:28;;;;;;;0.50;0.50;;;11.70;99.90;;;;;;6126868;23;20392;-69
2023/03/24 06:24:55;;;;;;;2.33;2.23;;;11.70;99.90;;;;;;6127383;23;20152;-68
2023/03/24 06:27:24;;;;;;;2.30;1.10;;;11.70;99.90;;;;;;6127313;23;20701;-69
2023/03/24 06:29:52;;;;;;;0.97;0.80;;;11.70;99.90;;;;;;6127358;23;20380;-68
2023/03/24 06:32:18;;;;;;;0.70;0.70;;;11.70;99.90;;;;;;6127325;23;20420;-69
2023/03/24 06:34:44;;;;;;;0.60;0.60;;;11.80;99.90;;;;;;6127148;23;20755;-69
2023/03/24 06:37:10;;;;;;;1.03;0.70;;;11.70;99.90;;;;;;6127151;23;20376;-68
2023/03/24 06:39:35;;;;;;;0.70;0.70;;;11.70;99.90;;;;;;6127292;23;20156;-68
2023/03/24 06:42:01;;;;;;;0.50;0.50;;;11.80;99.90;;;;;;6127065;23;20152;-68
2023/03/24 06:44:27;;;;;;;0.60;0.60;;;11.90;99.90;;;;;;6127267;23;20154;-69
2023/03/24 06:46:52;;;;;;;1.27;1.20;;;12.00;99.90;;;;;;6127211;23;20144;-68
2023/03/24 06:49:18;;;;;;;1.03;1.03;;;12.00;99.90;;;;;;6127148;23;20168;-68
2023/03/24 06:51:44;;;;;;;2.23;1.90;;;11.90;99.90;;;;;;6127143;23;20155;-69
2023/03/24 06:54:09;;;;;;;0.80;0.80;;;11.90;99.90;;;;;;6127088;23;20179;-69
2023/03/24 06:56:35;;;;;;;0.60;0.60;;;11.80;99.90;;;;;;6127158;23;20148;-68
2023/03/24 06:59:01;;;;;;;0.83;0.83;;;11.70;99.90;;;;;;6127013;23;20274;-68
2023/03/24 07:01:26;;;;;;;0.73;0.73;;;11.70;99.90;;;;;;6127106;23;20656;-69
2023/03/24 07:03:52;;;;;;;3.70;1.47;;;11.60;99.90;;;;;;6126864;23;20472;-69
2023/03/24 07:06:19;;;;;;;0.70;0.60;;;11.70;99.90;;;;;;6127045;23;20152;-67
2023/03/24 07:08:44;;;;;;;0.60;0.60;;;11.50;99.90;;;;;;6100928;23;20632;-67
2023/03/24 07:11:10;;;;;;;0.50;0.50;;;11.50;99.90;;;;;;6126952;23;20380;-68
2023/03/24 07:13:37;;;;;;;1.03;1.00;;;11.50;99.90;;;;;;6126628;23;20828;-68
2023/03/24 07:16:03;;;;;;;1.30;0.70;;;11.50;99.90;;;;;;6126949;23;20707;-69
2023/03/24 07:18:28;;;;;;;0.40;0.40;;;11.50;99.90;;;;;;6100835;23;20408;-69
2023/03/24 07:20:54;;;;;;;0.60;0.60;;;11.50;99.90;;;;;;6127027;23;20400;-68
2023/03/24 07:23:20;;;;;;;1.50;0.93;;;11.50;99.90;;;;;;6126655;23;20164;-69
2023/03/24 07:25:45;;;;;;;0.73;0.73;;;11.70;99.90;;;;;;6126734;23;20156;-68
2023/03/24 07:28:11;;;;;;;4.33;0.83;;;11.70;99.90;;;;;;6126750;23;20843;-67
2023/03/24 07:30:37;;;;;;;1.20;1.10;;;11.70;99.90;;;;;;6126859;23;20159;-68
2023/03/24 07:33:05;;;;;;;0.53;0.53;;;11.70;99.90;;;;;;6126361;23;20183;-69
2023/03/24 07:35:30;;;;;;;0.90;0.70;;;11.70;99.90;;;;;;6126733;23;20155;-68
2023/03/24 07:38:00;;;;;;;0.70;0.70;;;11.70;99.90;;;;;;6126652;23;20395;-69
2023/03/24 07:40:26;;;;;;;0.50;0.50;;;11.70;99.90;;;;;;6126779;23;20231;-68
2023/03/24 07:42:52;;;;;;;1.63;1.17;;;11.80;99.90;;;;;;6126595;23;20383;-69
2023/03/24 07:45:18;;;;;;;2.67;0.90;;;11.90;99.90;;;;;;6126704;23;20380;-69
2023/03/24 07:47:44;;;;;;;0.50;0.50;;;12.00;99.90;;;;;;6126739;23;20566;-68
2023/03/24 07:50:12;;;;;;;1.03;1.03;;;12.00;99.90;;;;;;6126667;23;20375;-68
2023/03/24 07:52:45;;;;;;;2.50;1.80;;;12.00;99.90;;;;;;6126376;23;20416;-69
2023/03/24 07:55:12;;;;;;;0.50;0.50;;;12.00;99.90;;;;;;6126633;23;20353;-68
2023/03/24 07:57:40;;;;;;;4.50;0.97;;;12.00;99.90;;;;;;6126555;23;20388;-68
2023/03/24 08:00:14;;;;;;;2.10;1.63;;;12.00;99.90;;;;;;6126553;23;20702;-68
2023/03/24 08:02:40;;;;;;;2.03;1.27;;;12.00;99.90;;;;;;6126660;23;20357;-69
2023/03/24 08:05:07;;;;;;;0.80;0.80;;;11.80;99.90;;;;;;6127354;23;20477;-69
2023/03/24 08:07:33;;;;;;;0.60;0.60;;;11.80;99.90;;;;;;6126454;23;20399;-69
2023/03/24 08:09:59;;;;;;;1.40;1.27;;;11.80;99.90;;;;;;6126492;23;20376;-69
2023/03/24 08:12:25;;;;;;;0.50;0.50;;;11.70;99.90;;;;;;6126224;23;20419;-69
2023/03/24 08:14:51;;;;;;;1.63;1.53;;;11.80;99.90;;;;;;6126462;23;20148;-68
2023/03/24 08:17:16;;;;;;;1.17;1.17;;;11.90;99.90;;;;;;6126341;23;20144;-68
2023/03/24 08:19:42;;;;;;;0.93;0.93;;;11.80;99.90;;;;;;6126480;23;20379;-68
2023/03/24 08:22:07;;;;;;;4.53;1.87;;;11.80;99.90;;;;;;6126153;23;20164;-68
2023/03/24 08:24:35;;;;;;;1.20;1.20;;;11.70;99.90;;;;;;6126410;23;20144;-69
2023/03/24 08:27:05;;;;;;;0.70;0.60;;;11.70;99.90;;;;;;6126336;23;20168;-68
2023/03/24 08:29:33;;;;;;;4.57;2.00;;;11.60;99.90;;;;;;6126737;23;20759;-68
2023/03/24 08:31:59;;;;;;;0.82;0.50;;;11.50;99.90;;;;;;6126228;23;20376;-68
2023/03/24 08:34:26;;;;;;;2.05;1.95;;;11.50;99.90;;;;;;6126370;23;20203;-68
2023/03/24 08:36:52;;;;;;;1.25;1.13;;;11.20;99.90;;;;;;6126376;23;20195;-68
2023/03/24 08:39:19;;;;;;;2.03;1.93;;;11.30;99.90;;;;;;6126223;23;20604;-68
2023/03/24 08:41:45;;;;;;;0.85;0.85;;;11.30;99.90;;;;;;6126375;23;20372;-68
2023/03/24 08:44:11;;;;;;;1.52;1.42;;;11.40;99.90;;;;;;6126111;23;20462;-68
2023/03/24 08:46:38;;;;;;;3.83;1.60;;;11.40;99.90;;;;;;6128088;23;20153;-68
2023/03/24 08:49:04;;;;;;;1.58;0.90;;;11.40;99.90;;;;;;6128277;23;20478;-68
2023/03/24 08:51:31;;;;;;;1.23;1.23;;;11.50;99.90;;;;;;6128624;23;20556;-69
2023/03/24 08:53:56;;;;;;;0.97;0.97;;;11.60;99.90;;;;;;6102108;23;20423;-68
2023/03/24 08:56:22;;;;;;;0.70;0.70;;;11.70;99.90;;;;;;6128407;23;20439;-67
2023/03/24 08:58:50;;;;;;;1.43;1.43;;;11.90;99.90;;;;;;6128303;23;20168;-68
2023/03/24 09:01:19;;;;;;;1.43;1.10;;;12.00;99.90;;;;;;6128179;23;20148;-69
2023/03/24 09:03:45;;;;;;;0.40;0.40;;;12.10;99.90;;;;;;6128049;23;20405;-68
2023/03/24 09:06:12;;;;;;;0.63;0.60;;;12.10;99.90;;;;;;6128058;23;20380;-69
2023/03/24 09:08:38;;;;;;;1.30;1.20;;;12.20;99.90;;;;;;6128090;23;20427;-68
2023/03/24 09:11:04;;;;;;;0.60;0.60;;;12.20;99.90;;;;;;6128168;23;20446;-69
2023/03/24 09:13:30;;;;;;;1.57;1.57;;;12.30;99.90;;;;;;6127889;23;20226;-68
2023/03/24 09:16:01;;;;;;;2.13;2.03;;;12.30;99.90;;;;;;6128041;23;20366;-68
2023/03/24 09:18:28;;;;;;;1.33;1.33;;;12.40;99.90;;;;;;6127804;23;20716;-69
2023/03/24 09:20:53;;;;;;;1.73;1.60;;;12.10;99.90;;;;;;6127921;23;20399;-69
2023/03/24 09:23:20;;;;;;;1.77;0.57;;;12.00;99.90;;;;;;6127792;23;20858;-68
2023/03/24 09:25:49;;;;;;;0.73;0.70;;;11.80;99.90;;;;;;6128185;23;20148;-69
2023/03/24 09:28:15;;;;;;;3.97;3.57;;;11.70;99.90;;;;;;6127880;23;20933;-69
2023/03/24 09:30:41;;;;;;;0.63;0.63;;;11.70;99.90;;;;;;6128030;23;20411;-68
2023/03/24 09:33:07;;;;;;;0.30;0.30;;;11.60;99.90;;;;;;6127687;23;20607;-69
2023/03/24 09:35:32;;;;;;;1.13;0.70;;;11.70;99.90;;;;;;6127898;23;20379;-71
2023/03/24 09:37:58;;;;;;;0.60;0.60;;;11.70;99.90;;;;;;6127772;23;20171;-69
2023/03/24 09:40:25;;;;;;;2.17;2.07;;;11.70;99.90;;;;;;6127875;23;20167;-69
2023/03/24 09:42:59;;;;;;;1.23;1.23;;;11.70;99.90;;;;;;6101711;23;20600;-69
2023/03/24 09:45:28;;;;;;;1.63;1.53;;;11.90;99.90;;;;;;6127794;23;20365;-68
2023/03/24 09:48:04;;;;;;;6.60;3.77;;;12.10;99.90;;;;;;6127700;23;20400;-68
2023/03/24 09:50:39;;;;;;;3.03;2.43;;;12.00;99.90;;;;;;6127808;23;20362;-69
2023/03/24 09:53:37;;;;;;;5.67;5.20;;;12.00;99.90;;;;;;6127667;23;20743;-69
2023/03/24 09:56:12;;;;;;;0.70;0.50;;;12.00;99.90;;;;;;6127565;23;20363;-68
2023/03/24 09:58:40;;;;;;;1.10;1.10;;;12.00;99.90;;;;;;6127965;23;20424;-68
2023/03/24 10:01:14;;;;;;;2.50;2.30;;;12.00;99.90;;;;;;6127684;23;20717;-69
2023/03/24 10:03:41;;;;;;;2.20;1.20;;;11.90;99.90;;;;;;6127563;23;20427;-69
2023/03/24 10:06:17;;;;;;;0.40;0.40;;;11.80;99.90;;;;;;6127602;23;20713;-68
2023/03/24 10:08:49;;;;;;;1.00;0.90;;;11.90;99.90;;;;;;6127590;23;20792;-69
2023/03/24 10:11:56;;;;;;;0.40;0.40;;;11.90;99.90;;;;;;6127764;23;20693;-69
2023/03/24 10:14:46;;;;;;;2.53;2.43;;;12.00;99.90;;;;;;6047671;23;20438;-69
2023/03/24 10:17:50;;;;;;;1.03;0.90;;;12.00;99.90;;;;;;6127929;23;20363;-69
2023/03/24 10:20:29;;;;;;;0.30;0.30;;;12.00;99.90;;;;;;6127603;23;20364;-69
2023/03/24 10:23:06;;;;;;;2.93;1.07;;;11.90;99.90;;;;;;6127021;23;20395;-69
2023/03/24 10:25:44;;;;;;;0.40;0.40;;;11.90;99.90;;;;;;6127483;23;20416;-69
2023/03/24 10:28:18;;;;;;;2.60;2.50;;;11.80;99.90;;;;;;6127283;23;20388;-69
2023/03/24 10:30:47;;;;;;;0.40;0.40;;;11.70;99.90;;;;;;6127500;23;20352;-69
2023/03/24 10:33:13;;;;;;;0.30;0.30;;;11.70;99.90;;;;;;6127081;23;20442;-69
2023/03/24 10:35:51;;;;;;;0.40;0.40;;;11.80;99.90;;;;;;6127298;23;20755;-69
2023/03/24 10:38:21;;;;;;;0.40;0.40;;;11.80;99.90;;;;;;6127284;23;20395;-69
2023/03/24 10:40:47;;;;;;;0.40;0.40;;;11.80;99.90;;;;;;6127643;23;20352;-69
2023/03/24 10:43:17;;;;;;;0.30;0.30;;;11.80;99.90;;;;;;6127175;23;20383;-69
2023/03/24 10:45:46;;;;;;;0.40;0.40;;;11.60;99.90;;;;;;6127158;23;20380;-69
2023/03/24 10:48:14;;;;;;;0.68;0.60;;;11.40;99.90;;;;;;6127068;23;20396;-69
2023/03/24 10:50:43;;;;;;;0.30;0.30;;;11.20;99.90;;;;;;6127422;23;20175;-69
2023/03/24 10:53:20;;;;;;;0.30;0.30;;;11.10;99.90;;;;;;6126774;23;20422;-68
2023/03/24 10:55:46;;;;;;;0.40;0.40;;;11.00;99.90;;;;;;6126954;23;20384;-69
2023/03/24 10:58:26;;;;;;;0.30;0.30;;;10.90;99.90;;;;;;6126989;23;20395;-69
2023/03/24 11:00:53;;;;;;;0.50;0.50;;;11.00;99.90;;;;;;6127254;23;20696;-69
2023/03/24 11:03:28;;;;;;;0.30;0.30;;;11.00;99.90;;;;;;6127027;23;20595;-69
2023/03/24 11:05:59;;;;;;;0.40;0.40;;;11.00;99.90;;;;;;6127225;23;20434;-69
2023/03/24 11:08:43;;;;;;;0.87;0.77;;;11.10;99.90;;;;;;6126981;23;20451;-69
2023/03/24 11:11:29;;;;;;;0.30;0.30;;;11.10;99.90;;;;;;6127054;23;20427;-68
2023/03/24 11:14:01;;;;;;;0.40;0.40;;;11.20;99.90;;;;;;6126663;23;20463;-69
2023/03/24 11:16:30;;;;;;;0.30;0.30;;;10.90;99.90;;;;;;6127380;23;20136;-69
2023/03/24 11:19:04;;;;;;;0.77;0.60;;;10.90;99.90;;;;;;6126885;23;20164;-69
2023/03/24 11:21:34;;;;;;;0.30;0.30;;;10.90;99.90;;;;;;6127076;23;20647;-68
2023/03/24 11:24:10;;;;;;;1.55;1.45;;;10.90;99.90;;;;;;6126775;23;20411;-69
2023/03/24 11:26:38;;;;;;;1.65;1.65;;;10.90;99.90;;;;;;6127099;23;20136;-69
2023/03/24 11:29:08;;;;;;;3.90;0.73;;;10.90;99.90;;;;;;6126826;23;20172;-68
2023/03/24 11:31:39;;;;;;;1.15;1.15;;;10.90;99.90;;;;;;6126751;23;20152;-69
2023/03/24 11:34:24;;;;;;;0.93;0.93;;;10.80;99.90;;;;;;6126751;23;20168;-69
2023/03/24 11:36:56;;;;;;;0.40;0.40;;;10.80;99.90;;;;;;6127032;23;20156;-68
2023/03/24 11:39:21;;;;;;;1.10;0.95;;;10.80;99.90;;;;;;6126669;23;20690;-69
2023/03/24 11:42:12;;;;;;;0.30;0.30;;;10.90;99.90;;;;;;6126530;23;20152;-69
2023/03/24 11:44:38;;;;;;;0.30;0.30;;;11.00;99.90;;;;;;6127014;23;20187;-68
2023/03/24 11:47:10;;;;;;;1.87;1.67;;;10.80;99.90;;;;;;6126754;23;20148;-69
2023/03/24 11:49:42;;;;;;;0.30;0.30;;;10.90;99.90;;;;;;6127389;23;20524;-68
2023/03/24 11:52:22;;;;;;;7.82;5.47;;;11.00;99.90;;;;;;6126531;23;20136;-69
2023/03/24 11:54:48;;;;;;;1.38;1.27;;;10.90;99.90;;;;;;6126971;23;20132;-69
2023/03/24 11:57:21;;;;;;;0.50;0.50;;;11.20;99.90;;;;;;6126478;23;20144;-69
2023/03/24 12:00:12;;;;;;;0.75;0.75;;;11.20;99.90;;;;;;6126859;23;20136;-69
2023/03/24 12:02:40;;;;;;;0.30;0.30;;;11.00;99.90;;;;;;6126512;23;20132;-69
2023/03/24 12:05:25;;;;;;;2.90;2.70;;;11.10;99.90;;;;;;6126474;23;20149;-69
2023/03/24 12:08:10;;;;;;;0.50;0.50;;;11.00;99.90;;;;;;6126877;23;20176;-69
2023/03/24 12:10:43;;;;;;;0.50;0.50;;;11.20;99.90;;;;;;6126797;23;20152;-68
2023/03/24 12:13:15;;;;;;;0.65;0.65;;;11.30;99.90;;;;;;6126303;23;20507;-70
2023/03/24 12:15:46;;;;;;;0.50;0.50;;;11.40;99.90;;;;;;6126490;23;20537;-69
2023/03/24 12:18:23;;;;;;;1.77;1.70;;;11.50;99.90;;;;;;6126369;23;20388;-69
2023/03/24 12:21:10;;;;;;;0.40;0.40;;;11.40;99.90;;;;;;6126354;23;20443;-69
2023/03/24 12:23:47;;;;;;;0.70;0.70;;;11.50;99.90;;;;;;6126294;23;20368;-70
2023/03/24 12:26:30;;;;;;;1.27;0.90;;;11.60;99.90;;;;;;6126723;23;20136;-69
2023/03/24 12:29:20;;;;;;;0.70;0.70;;;11.60;99.90;;;;;;6126328;23;20391;-69
2023/03/24 12:31:51;;;;;;;0.40;0.40;;;11.60;99.90;;;;;;6126278;23;20164;-69
2023/03/24 12:34:48;;;;;;;1.13;1.13;;;11.70;99.90;;;;;;6126298;23;20439;-69
2023/03/24 12:37:20;;;;;;;2.55;2.35;;;11.90;99.90;;;;;;6126714;23;20437;-69
2023/03/24 12:40:01;;;;;;;0.40;0.40;;;11.70;99.90;;;;;;6100447;23;20152;-69
2023/03/24 12:42:54;;;;;;;0.80;0.80;;;11.70;99.90;;;;;;6126253;23;20136;-68
2023/03/24 12:45:39;;;;;;;0.37;0.37;;;11.60;99.90;;;;;;6125710;23;20724;-69
2023/03/24 12:48:29;;;;;;;0.70;0.70;;;11.60;99.90;;;;;;6126383;23;20396;-69
2023/03/24 12:51:15;;;;;;;2.10;0.50;;;11.50;99.90;;;;;;6126337;23;20368;-69
2023/03/24 12:54:30;;;;;;;0.70;0.70;;;11.60;99.90;;;;;;6084997;23;20462;-69
2023/03/24 12:57:02;;;;;;;0.53;0.53;;;11.40;99.90;;;;;;6063859;23;20232;-69
2023/03/24 12:59:32;;;;;;;0.40;0.40;;;11.20;99.90;;;;;;6126662;23;20364;-69
2023/03/24 13:02:28;;;;;;;0.50;0.50;;;11.20;99.90;;;;;;6126143;23;20372;-69
2023/03/24 13:05:03;;;;;;;0.30;0.30;;;11.30;99.90;;;;;;6063070;23;20160;-69
2023/03/24 13:07:32;;;;;;;0.30;0.30;;;11.30;99.90;;;;;;6126265;23;20168;-69
2023/03/24 13:10:12;;;;;;;0.60;0.60;;;11.40;99.90;;;;;;6126632;23;20372;-69
2023/03/24 13:13:17;;;;;;;0.40;0.40;;;11.30;99.90;;;;;;6126219;23;20241;-69